Time;durP1;ratioP1;P1;durP2;ratioP2;P2;SDS_P1;SDS_P2;PMS_P1;PMS_P2;Temp;Humidity;BMP_temperature;BMP_pressure;BME280_temperature;BME280_humidity;BME280_pressure;Samples;Min_cycle;Max_cycle;Signal;HPM_P1;HPM_P2
2022/01/19 00:01:13;;;;;;;16.65;11.77;;;6.60;96.70;;;;;;5080335;28;20604;-75
2022/01/19 00:03:43;;;;;;;15.15;11.18;;;6.50;96.70;;;;;;5079021;28;20115;-75
2022/01/19 00:06:12;;;;;;;18.60;11.77;;;6.50;96.70;;;;;;5079357;28;20351;-75
2022/01/19 00:08:40;;;;;;;17.33;11.95;;;6.50;96.70;;;;;;5070999;28;20502;-75
2022/01/19 00:11:08;;;;;;;17.05;12.00;;;6.40;96.70;;;;;;5079389;28;20046;-75
2022/01/19 00:13:36;;;;;;;16.55;10.93;;;6.50;96.70;;;;;;5061159;28;20135;-75
2022/01/19 00:16:05;;;;;;;17.35;11.73;;;6.40;96.70;;;;;;5072279;28;20413;-75
2022/01/19 00:18:34;;;;;;;19.48;11.55;;;6.30;96.70;;;;;;5083101;28;20040;-74
2022/01/19 00:21:04;;;;;;;17.45;11.85;;;6.20;96.70;;;;;;5084280;28;20160;-75
2022/01/19 00:23:32;;;;;;;17.75;12.13;;;6.20;96.70;;;;;;5079747;28;20097;-75
2022/01/19 00:26:00;;;;;;;17.23;11.20;;;6.30;96.70;;;;;;5071212;28;20066;-75
2022/01/19 00:28:28;;;;;;;20.05;11.57;;;6.20;96.70;;;;;;5074802;28;20129;-75
2022/01/19 00:30:56;;;;;;;15.60;10.85;;;6.00;96.70;;;;;;5070443;28;20251;-75
2022/01/19 00:33:24;;;;;;;17.15;11.18;;;6.10;96.70;;;;;;5081455;28;20054;-74
2022/01/19 00:35:52;;;;;;;16.25;11.75;;;6.10;96.70;;;;;;5093126;27;20038;-74
2022/01/19 00:38:22;;;;;;;17.55;11.30;;;6.20;96.70;;;;;;5077390;28;20775;-75
2022/01/19 00:40:50;;;;;;;19.23;11.00;;;6.20;96.70;;;;;;5070415;28;20583;-75
2022/01/19 00:43:18;;;;;;;16.88;11.40;;;6.30;96.70;;;;;;5066695;28;20445;-75
2022/01/19 00:45:47;;;;;;;16.00;10.98;;;6.10;96.70;;;;;;5076479;28;20456;-75
2022/01/19 00:48:30;;;;;;;14.43;10.95;;;6.00;96.70;;;;;;5079054;28;20044;-74
2022/01/19 00:50:58;;;;;;;16.05;11.30;;;6.10;96.70;;;;;;5072904;28;20577;-75
2022/01/19 00:53:28;;;;;;;16.95;11.60;;;6.10;96.70;;;;;;5077984;28;20048;-75
2022/01/19 00:55:57;;;;;;;17.63;11.73;;;6.00;96.70;;;;;;5077206;28;20835;-75
2022/01/19 00:58:26;;;;;;;21.95;12.30;;;6.00;96.70;;;;;;5063417;28;20048;-75
2022/01/19 01:00:54;;;;;;;19.08;12.07;;;5.90;96.70;;;;;;5070169;28;20051;-75
2022/01/19 01:03:22;;;;;;;17.55;11.57;;;5.80;96.70;;;;;;5072406;28;20517;-75
2022/01/19 01:05:50;;;;;;;17.80;11.80;;;5.80;96.70;;;;;;5080063;28;20052;-74
2022/01/19 01:08:18;;;;;;;15.88;10.85;;;5.80;96.70;;;;;;5074349;28;20032;-75
2022/01/19 01:10:49;;;;;;;15.73;11.00;;;5.70;96.70;;;;;;5076983;28;20498;-74
2022/01/19 01:13:28;;;;;;;14.05;10.50;;;5.70;96.70;;;;;;5068353;28;20043;-75
2022/01/19 01:18:30;;;;;;;17.25;10.88;;;5.60;96.70;;;;;;5068496;28;20158;-74
2022/01/19 01:21:01;;;;;;;17.83;11.10;;;5.70;96.70;;;;;;5079242;28;20044;-74
2022/01/19 01:23:32;;;;;;;16.70;11.40;;;5.60;96.70;;;;;;5068038;28;21293;-74
2022/01/19 01:26:07;;;;;;;15.05;10.63;;;5.70;96.70;;;;;;5072075;28;20509;-75
2022/01/19 01:28:35;;;;;;;19.70;11.57;;;5.70;96.70;;;;;;5067481;28;20498;-75
2022/01/19 01:31:04;;;;;;;18.95;11.20;;;5.60;96.70;;;;;;5071616;28;20048;-75
2022/01/19 01:33:33;;;;;;;17.27;11.32;;;5.50;96.70;;;;;;5061313;28;20110;-75
2022/01/19 01:36:02;;;;;;;14.55;10.60;;;5.60;96.70;;;;;;5071373;28;20051;-75
2022/01/19 01:38:30;;;;;;;16.52;11.23;;;5.50;96.70;;;;;;5073576;28;20064;-75
2022/01/19 01:41:15;;;;;;;15.82;11.05;;;5.40;96.70;;;;;;5078299;28;20063;-75
2022/01/19 01:43:48;;;;;;;15.13;10.80;;;5.30;96.70;;;;;;5073135;28;20609;-74
2022/01/19 01:46:54;;;;;;;16.48;10.75;;;5.50;96.70;;;;;;5079224;28;20087;-74
2022/01/19 01:49:17;;;;;;;16.05;10.65;;;5.50;96.70;;;;;;5070528;28;20127;-75
2022/01/19 01:54:34;;;;;;;15.05;10.30;;;5.50;96.70;;;;;;5094860;27;20448;-75
2022/01/19 01:57:04;;;;;;;13.63;10.00;;;5.40;96.70;;;;;;5083962;28;20043;-75
2022/01/19 01:59:33;;;;;;;16.83;10.77;;;5.50;96.70;;;;;;5074050;28;20102;-75
2022/01/19 02:02:19;;;;;;;17.15;10.23;;;5.50;96.70;;;;;;5080529;28;20571;-75
2022/01/19 02:04:48;;;;;;;15.30;10.45;;;5.50;96.70;;;;;;5084093;28;20069;-75
2022/01/19 02:07:32;;;;;;;14.38;10.65;;;5.50;96.70;;;;;;5077001;28;20047;-75
2022/01/19 02:10:08;;;;;;;13.00;9.80;;;5.50;96.70;;;;;;5077581;28;20421;-75
2022/01/19 02:23:51;;;;;;;13.18;9.55;;;5.50;96.70;;;;;;5082673;28;20125;-75
2022/01/19 02:26:49;;;;;;;14.95;9.65;;;5.50;96.70;;;;;;5082156;28;20443;-75
2022/01/19 02:29:20;;;;;;;12.82;9.18;;;5.50;96.70;;;;;;5075177;28;20509;-75
2022/01/19 02:36:35;;;;;;;11.73;9.18;;;5.40;96.70;;;;;;5066505;28;20053;-76
2022/01/19 02:40:24;;;;;;;14.02;8.73;;;5.40;96.70;;;;;;5083628;28;20040;-75
2022/01/19 02:50:56;;;;;;;12.75;9.32;;;5.20;96.70;;;;;;5076960;28;20482;-75
2022/01/19 02:53:26;;;;;;;13.57;9.38;;;5.20;96.70;;;;;;5080724;28;20417;-75
2022/01/19 02:55:54;;;;;;;13.25;8.95;;;5.10;96.70;;;;;;5094236;27;20143;-75
2022/01/19 02:58:24;;;;;;;11.27;9.23;;;5.00;96.70;;;;;;5065077;28;20143;-75
2022/01/19 03:09:14;;;;;;;12.37;8.50;;;5.00;96.70;;;;;;5093677;27;20525;-75
2022/01/19 03:11:42;;;;;;;13.30;9.10;;;4.90;96.70;;;;;;5059418;28;20620;-75
2022/01/19 03:14:10;;;;;;;14.10;9.07;;;4.80;96.70;;;;;;5079558;28;20067;-75
2022/01/19 03:16:38;;;;;;;13.95;8.40;;;4.90;96.70;;;;;;5070554;28;20638;-75
2022/01/19 03:19:08;;;;;;;14.70;9.45;;;4.90;96.70;;;;;;5078378;28;20115;-75
2022/01/19 03:21:36;;;;;;;13.45;8.82;;;4.80;96.70;;;;;;5073004;28;20040;-75
2022/01/19 03:24:06;;;;;;;13.55;8.25;;;4.80;96.70;;;;;;5073454;28;20405;-74
2022/01/19 03:26:35;;;;;;;10.20;8.20;;;4.80;96.70;;;;;;5073673;28;20048;-75
2022/01/19 03:29:24;;;;;;;11.52;8.30;;;4.90;96.70;;;;;;5074455;28;20060;-74
2022/01/19 03:31:52;;;;;;;12.23;8.52;;;4.90;96.70;;;;;;5082490;28;20562;-75
2022/01/19 03:34:20;;;;;;;12.13;8.55;;;4.90;96.70;;;;;;5078618;28;20033;-75
2022/01/19 03:36:58;;;;;;;11.90;8.27;;;4.70;96.70;;;;;;5082659;28;20040;-74
2022/01/19 03:39:26;;;;;;;10.32;7.78;;;4.80;96.70;;;;;;5078492;28;20051;-75
2022/01/19 03:41:56;;;;;;;9.80;7.28;;;4.80;96.70;;;;;;5078632;28;20047;-75
2022/01/19 03:44:24;;;;;;;9.77;7.32;;;4.90;96.70;;;;;;5072014;28;20066;-75
2022/01/19 03:46:57;;;;;;;12.48;7.90;;;4.90;96.70;;;;;;5083589;28;20028;-75
2022/01/19 03:49:27;;;;;;;13.10;7.70;;;4.90;96.70;;;;;;5078137;28;20394;-75
2022/01/19 03:51:59;;;;;;;9.45;7.30;;;4.80;96.70;;;;;;5076224;28;20044;-75
2022/01/19 03:54:33;;;;;;;14.13;8.90;;;4.80;96.70;;;;;;5071005;28;20139;-75
2022/01/19 03:57:03;;;;;;;12.88;7.97;;;4.70;96.70;;;;;;5084560;28;20077;-75
2022/01/19 03:59:32;;;;;;;9.80;7.82;;;4.70;96.70;;;;;;5075402;28;20135;-75
2022/01/19 04:02:01;;;;;;;12.07;8.10;;;4.70;96.70;;;;;;5069528;28;20593;-75
2022/01/19 04:09:39;;;;;;;12.90;9.32;;;4.50;96.70;;;;;;5076785;28;20040;-75
2022/01/19 04:12:12;;;;;;;11.25;8.05;;;4.50;96.70;;;;;;5077768;28;20051;-75
2022/01/19 04:14:41;;;;;;;10.98;7.32;;;4.60;96.70;;;;;;5079868;28;20044;-75
2022/01/19 04:17:11;;;;;;;11.93;8.80;;;4.50;96.70;;;;;;5070448;28;20460;-75
2022/01/19 04:19:46;;;;;;;11.15;8.18;;;4.50;96.70;;;;;;5072009;28;20050;-75
2022/01/19 04:22:25;;;;;;;13.32;8.77;;;4.40;96.70;;;;;;5071662;28;20048;-75
2022/01/19 04:25:01;;;;;;;13.27;9.25;;;4.50;96.70;;;;;;5072732;28;20068;-75
2022/01/19 04:27:32;;;;;;;12.38;8.48;;;4.60;96.70;;;;;;5078182;28;20047;-75
2022/01/19 04:30:08;;;;;;;12.30;8.45;;;4.60;96.70;;;;;;5060188;28;20052;-75
2022/01/19 04:32:47;;;;;;;11.70;8.15;;;4.50;96.70;;;;;;5070542;28;20472;-75
2022/01/19 04:35:20;;;;;;;11.43;8.50;;;4.60;96.70;;;;;;5063204;28;20097;-75
2022/01/19 04:38:24;;;;;;;11.63;8.32;;;4.50;96.70;;;;;;5072318;28;20048;-75
2022/01/19 04:54:17;;;;;;;12.38;7.95;;;4.20;96.70;;;;;;5000983;28;20085;-76
2022/01/19 05:07:15;;;;;;;9.85;7.50;;;4.20;96.70;;;;;;4954649;28;20496;-76
2022/01/19 05:13:23;;;;;;;12.70;8.23;;;4.10;96.70;;;;;;4940812;28;20058;-76
2022/01/19 05:15:36;;;;;;;11.55;7.53;;;4.10;96.70;;;;;;4958271;28;20053;-76
2022/01/19 05:18:08;;;;;;;9.93;8.07;;;4.10;96.70;;;;;;4943524;28;20101;-76
2022/01/19 05:20:36;;;;;;;12.13;9.18;;;4.10;96.70;;;;;;4958613;28;20070;-76
2022/01/19 05:23:05;;;;;;;11.32;8.80;;;4.00;96.70;;;;;;4943591;28;20050;-76
2022/01/19 05:25:34;;;;;;;12.40;8.52;;;3.90;96.70;;;;;;4985648;28;20049;-76
2022/01/19 05:28:13;;;;;;;10.75;7.68;;;3.90;96.70;;;;;;4998820;28;20114;-76
2022/01/19 05:30:43;;;;;;;10.35;7.70;;;3.90;96.70;;;;;;4998029;28;20053;-76
2022/01/19 05:33:12;;;;;;;10.02;7.25;;;3.90;96.70;;;;;;5005322;28;20559;-76
2022/01/19 05:35:40;;;;;;;10.70;7.57;;;3.90;96.70;;;;;;4993736;28;20049;-76
2022/01/19 05:38:27;;;;;;;10.85;7.68;;;3.90;96.70;;;;;;5009673;28;20577;-76
2022/01/19 05:41:13;;;;;;;9.82;7.45;;;3.90;96.70;;;;;;5014430;28;20049;-76
2022/01/19 05:43:43;;;;;;;10.10;7.18;;;4.00;96.70;;;;;;5056904;28;20045;-76
2022/01/19 05:46:13;;;;;;;11.32;7.68;;;4.00;96.70;;;;;;5061226;28;20064;-76
2022/01/19 05:48:42;;;;;;;10.18;7.22;;;4.10;96.70;;;;;;5061169;28;20036;-76
2022/01/19 05:51:10;;;;;;;10.73;7.93;;;4.00;96.70;;;;;;5082024;28;20743;-75
2022/01/19 05:53:39;;;;;;;10.80;7.95;;;4.00;96.70;;;;;;5078293;28;20517;-76
2022/01/19 05:56:08;;;;;;;10.27;8.25;;;3.90;96.70;;;;;;5073192;28;20040;-76
2022/01/19 05:58:49;;;;;;;11.95;8.05;;;3.70;96.70;;;;;;5070249;28;20043;-76
2022/01/19 06:01:20;;;;;;;11.52;7.68;;;3.50;96.70;;;;;;5072415;28;20183;-76
2022/01/19 06:03:50;;;;;;;13.75;8.13;;;3.40;96.70;;;;;;5073226;28;20071;-76
2022/01/19 06:06:53;;;;;;;11.68;7.85;;;3.40;96.70;;;;;;5066852;28;20041;-76
2022/01/19 06:12:13;;;;;;;12.18;7.47;;;3.60;96.70;;;;;;5076727;28;20033;-76
2022/01/19 06:14:43;;;;;;;12.27;8.25;;;3.70;96.70;;;;;;5074406;28;20056;-76
2022/01/19 06:17:13;;;;;;;14.85;8.70;;;3.80;96.70;;;;;;5078920;28;20588;-75
2022/01/19 06:19:44;;;;;;;10.45;7.47;;;3.90;96.70;;;;;;5071334;28;20090;-76
2022/01/19 06:22:16;;;;;;;9.10;6.82;;;3.70;96.70;;;;;;5085947;28;20047;-76
2022/01/19 06:24:45;;;;;;;11.13;7.22;;;3.70;96.70;;;;;;5076472;28;20044;-76
2022/01/19 06:27:14;;;;;;;11.82;7.78;;;3.60;96.70;;;;;;5074811;28;20040;-76
2022/01/19 06:29:42;;;;;;;11.98;7.60;;;3.70;96.70;;;;;;5060077;28;20138;-75
2022/01/19 06:32:12;;;;;;;12.52;8.23;;;3.70;96.70;;;;;;5072094;28;20044;-76
2022/01/19 06:34:40;;;;;;;9.77;7.57;;;3.70;96.70;;;;;;5077695;28;20048;-75
2022/01/19 06:37:23;;;;;;;9.60;6.78;;;3.70;96.70;;;;;;5079559;28;20052;-75
2022/01/19 06:40:01;;;;;;;9.90;7.20;;;3.70;96.70;;;;;;5077258;28;20524;-75
2022/01/19 06:42:35;;;;;;;11.60;7.32;;;3.60;96.70;;;;;;5066711;28;20048;-75
2022/01/19 06:45:05;;;;;;;10.63;7.07;;;3.60;96.70;;;;;;5075441;28;20050;-75
2022/01/19 06:47:36;;;;;;;10.75;7.65;;;3.70;96.70;;;;;;5073858;28;20093;-75
2022/01/19 06:50:06;;;;;;;9.70;6.88;;;3.80;96.70;;;;;;5088793;28;20047;-75
2022/01/19 06:52:38;;;;;;;9.23;6.95;;;3.70;96.70;;;;;;5096822;27;20390;-75
2022/01/19 06:55:08;;;;;;;10.98;7.18;;;3.60;96.70;;;;;;5078282;28;20293;-74
2022/01/19 06:57:36;;;;;;;11.15;6.97;;;3.60;96.70;;;;;;5079770;28;20050;-74
2022/01/19 07:00:22;;;;;;;11.85;7.30;;;3.70;96.70;;;;;;5075258;28;20059;-74
2022/01/19 07:03:15;;;;;;;12.48;7.60;;;3.70;96.70;;;;;;5060184;28;20510;-75
2022/01/19 07:05:46;;;;;;;12.75;7.40;;;3.70;96.70;;;;;;5081138;28;20131;-78
2022/01/19 07:08:41;;;;;;;14.18;8.07;;;3.70;96.70;;;;;;5076456;28;20060;-75
2022/01/19 07:11:10;;;;;;;14.75;7.95;;;3.70;96.70;;;;;;5075436;28;20224;-75
2022/01/19 07:13:38;;;;;;;11.18;7.20;;;3.60;96.70;;;;;;5080928;28;20133;-79
2022/01/19 07:16:06;;;;;;;11.23;7.70;;;3.60;96.70;;;;;;5060166;28;20144;-74
2022/01/19 07:18:37;;;;;;;10.90;7.50;;;3.30;96.70;;;;;;5071133;28;20068;-79
2022/01/19 07:21:07;;;;;;;10.30;7.75;;;2.80;96.70;;;;;;5077556;28;20127;-75
2022/01/19 07:23:51;;;;;;;14.65;7.97;;;2.60;96.70;;;;;;5075358;28;20605;-75
2022/01/19 07:26:21;;;;;;;11.95;7.70;;;2.40;96.70;;;;;;5078891;28;20051;-75
2022/01/19 07:28:49;;;;;;;14.05;8.73;;;2.20;96.70;;;;;;5082224;28;20109;-75
2022/01/19 07:31:17;;;;;;;11.35;7.32;;;2.20;96.70;;;;;;5084381;28;20059;-76
2022/01/19 07:33:48;;;;;;;12.95;8.40;;;2.10;96.70;;;;;;5075768;28;20053;-74
2022/01/19 07:36:16;;;;;;;12.48;7.97;;;2.20;96.70;;;;;;5058805;28;20147;-74
2022/01/19 07:38:44;;;;;;;11.30;7.95;;;2.20;96.70;;;;;;5072032;28;20037;-75
2022/01/19 07:41:13;;;;;;;15.07;8.70;;;2.30;96.70;;;;;;5058524;28;20129;-75
2022/01/19 07:43:47;;;;;;;14.40;8.70;;;2.30;96.70;;;;;;5071195;28;20058;-75
2022/01/19 07:46:15;;;;;;;12.57;7.03;;;2.40;96.70;;;;;;5072334;28;20158;-75
2022/01/19 07:48:48;;;;;;;10.82;7.80;;;2.40;96.70;;;;;;5067601;28;20136;-75
2022/01/19 07:51:38;;;;;;;17.58;8.02;;;2.50;96.70;;;;;;5081668;28;20047;-75
2022/01/19 07:54:11;;;;;;;13.50;9.15;;;2.60;96.70;;;;;;5076895;28;20075;-75
2022/01/19 07:56:58;;;;;;;13.52;8.88;;;2.60;96.70;;;;;;5075883;28;20040;-75
2022/01/19 07:59:43;;;;;;;16.58;8.65;;;2.70;96.70;;;;;;5074369;28;20409;-75
2022/01/19 08:02:13;;;;;;;12.27;7.93;;;2.70;96.70;;;;;;5070622;28;20059;-75
2022/01/19 08:05:12;;;;;;;14.68;8.70;;;2.70;96.70;;;;;;5044430;28;20127;-75
2022/01/19 08:07:44;;;;;;;11.65;8.63;;;2.80;96.70;;;;;;5026370;28;20040;-75
2022/01/19 08:10:13;;;;;;;12.52;8.02;;;2.80;96.70;;;;;;5079578;28;20093;-75
2022/01/19 08:12:43;;;;;;;14.25;8.38;;;2.80;96.70;;;;;;5078204;28;20072;-75
2022/01/19 08:15:18;;;;;;;10.63;8.05;;;2.90;96.70;;;;;;5076462;28;20048;-74
2022/01/19 08:17:53;;;;;;;16.90;10.02;;;3.00;96.70;;;;;;5073393;28;20588;-75
2022/01/19 08:20:22;;;;;;;15.57;9.40;;;3.10;96.70;;;;;;5061175;28;20125;-75
2022/01/19 08:22:51;;;;;;;15.18;9.07;;;3.20;96.70;;;;;;5073498;28;20406;-75
2022/01/19 08:25:24;;;;;;;12.63;8.10;;;3.30;96.70;;;;;;5070608;28;20459;-75
2022/01/19 08:27:52;;;;;;;13.32;8.55;;;3.30;96.70;;;;;;5069318;28;20465;-75
2022/01/19 08:30:28;;;;;;;14.10;9.40;;;3.40;96.70;;;;;;5074412;28;20044;-75
2022/01/19 08:32:58;;;;;;;15.95;9.95;;;3.50;96.70;;;;;;5075529;28;20086;-76
2022/01/19 08:35:40;;;;;;;13.07;8.93;;;3.50;96.70;;;;;;5079479;28;20515;-75
2022/01/19 08:38:26;;;;;;;14.75;9.63;;;3.70;96.70;;;;;;5073689;28;20063;-75
2022/01/19 08:41:09;;;;;;;13.75;9.57;;;3.80;96.70;;;;;;5078934;28;20059;-75
2022/01/19 08:43:39;;;;;;;14.77;9.13;;;3.90;96.70;;;;;;5072338;28;20043;-75
2022/01/19 08:46:07;;;;;;;15.95;9.48;;;4.00;96.70;;;;;;5069487;28;20425;-75
2022/01/19 08:49:07;;;;;;;15.90;9.90;;;4.10;96.70;;;;;;5039933;28;20044;-75
2022/01/19 08:52:00;;;;;;;13.60;9.48;;;4.10;96.70;;;;;;5081260;28;20040;-76
2022/01/19 08:54:35;;;;;;;17.73;10.02;;;4.10;96.70;;;;;;5079140;28;20570;-76
2022/01/19 08:57:08;;;;;;;14.88;9.52;;;4.20;96.70;;;;;;5070698;28;20146;-76
2022/01/19 08:59:37;;;;;;;15.40;9.88;;;4.30;96.70;;;;;;5074583;28;20525;-75
2022/01/19 09:02:06;;;;;;;16.10;9.80;;;4.40;96.70;;;;;;5068029;28;20040;-75
2022/01/19 09:04:34;;;;;;;16.42;9.70;;;4.50;96.70;;;;;;5067325;28;20036;-75
2022/01/19 09:07:04;;;;;;;12.40;9.07;;;4.60;96.70;;;;;;5073753;28;20064;-75
2022/01/19 09:09:33;;;;;;;12.82;9.63;;;4.70;96.70;;;;;;5062048;28;20056;-75
2022/01/19 09:12:01;;;;;;;12.27;8.70;;;4.80;96.70;;;;;;5075339;28;20402;-75
2022/01/19 09:14:30;;;;;;;13.57;9.07;;;4.90;96.70;;;;;;5072783;28;20135;-74
2022/01/19 09:16:59;;;;;;;14.65;9.40;;;5.00;96.70;;;;;;5072743;28;20494;-75
2022/01/19 09:19:27;;;;;;;13.20;9.65;;;5.10;96.70;;;;;;5067644;28;20101;-75
2022/01/19 09:21:55;;;;;;;15.13;9.77;;;5.20;96.70;;;;;;5066811;28;20047;-74
2022/01/19 09:24:25;;;;;;;13.65;10.50;;;5.30;96.70;;;;;;5072164;28;20048;-75
2022/01/19 09:26:57;;;;;;;16.08;10.88;;;5.40;96.70;;;;;;5072055;28;20433;-75
2022/01/19 09:29:25;;;;;;;18.98;12.10;;;5.50;96.70;;;;;;5059330;28;20067;-75
2022/01/19 09:31:55;;;;;;;16.48;11.18;;;5.60;96.70;;;;;;5072781;28;20052;-76
2022/01/19 09:34:24;;;;;;;15.70;10.45;;;5.70;96.70;;;;;;5061610;28;20420;-76
2022/01/19 09:36:53;;;;;;;14.60;9.88;;;5.90;96.70;;;;;;5069605;28;20161;-76
2022/01/19 09:39:23;;;;;;;16.42;11.18;;;6.00;96.70;;;;;;5073982;28;20328;-75
2022/01/19 09:41:53;;;;;;;63.45;36.95;;;6.20;96.70;;;;;;5070240;28;20509;-75
2022/01/19 09:44:23;;;;;;;30.02;17.10;;;6.30;96.70;;;;;;5071558;28;20110;-75
2022/01/19 09:46:53;;;;;;;18.98;12.93;;;6.40;96.70;;;;;;5085160;28;20060;-76
2022/01/19 09:49:21;;;;;;;17.35;11.90;;;6.60;96.70;;;;;;5084321;28;20116;-76
2022/01/19 09:51:51;;;;;;;15.23;11.50;;;6.70;96.70;;;;;;5074946;28;20075;-76
2022/01/19 09:54:23;;;;;;;15.40;11.43;;;6.80;96.70;;;;;;5079838;28;20054;-76
2022/01/19 09:56:54;;;;;;;14.63;11.25;;;6.90;96.70;;;;;;5077287;28;20139;-76
2022/01/19 09:59:24;;;;;;;19.23;13.20;;;7.00;96.70;;;;;;5068168;28;20047;-76
2022/01/19 10:01:53;;;;;;;16.05;11.57;;;7.10;96.70;;;;;;5083475;28;20074;-76
2022/01/19 10:04:25;;;;;;;18.23;12.52;;;7.20;96.70;;;;;;5070931;28;20044;-76
2022/01/19 10:07:09;;;;;;;16.67;11.35;;;7.30;96.70;;;;;;5075045;28;20437;-76
2022/01/19 10:09:52;;;;;;;14.80;10.40;;;7.40;96.70;;;;;;5078303;28;20051;-76
2022/01/19 10:18:15;;;;;;;16.80;11.45;;;7.80;96.70;;;;;;5069318;28;20067;-76
2022/01/19 10:20:46;;;;;;;15.45;11.57;;;7.90;96.70;;;;;;5082532;28;20044;-77
2022/01/19 10:23:41;;;;;;;16.67;11.20;;;8.00;96.70;;;;;;5084349;28;20051;-77
2022/01/19 10:26:13;;;;;;;16.42;10.95;;;8.10;96.70;;;;;;5033853;28;20052;-76
2022/01/19 10:29:03;;;;;;;16.25;11.30;;;8.20;96.70;;;;;;5074816;28;20040;-76
2022/01/19 10:31:34;;;;;;;18.13;12.27;;;8.30;96.70;;;;;;5077289;28;20051;-77
2022/01/19 10:34:16;;;;;;;22.30;13.63;;;8.30;96.70;;;;;;5072520;28;20189;-77
2022/01/19 10:36:46;;;;;;;16.80;11.38;;;8.40;96.70;;;;;;5081956;28;20036;-77
2022/01/19 10:39:14;;;;;;;18.75;12.73;;;8.50;96.70;;;;;;5060546;28;20402;-77
2022/01/19 10:42:01;;;;;;;21.33;13.32;;;8.60;96.70;;;;;;5082454;28;20563;-76
2022/01/19 10:44:34;;;;;;;17.83;13.48;;;8.60;96.70;;;;;;5084436;28;20470;-76
2022/01/19 10:47:43;;;;;;;19.25;13.18;;;8.60;96.70;;;;;;5071987;28;20406;-75
2022/01/19 10:50:14;;;;;;;18.92;13.13;;;8.70;96.70;;;;;;5063107;28;20054;-76
2022/01/19 10:52:44;;;;;;;18.23;12.98;;;8.70;96.70;;;;;;5076674;28;20109;-75
2022/01/19 10:55:25;;;;;;;19.48;13.52;;;8.60;96.70;;;;;;5066988;28;20452;-75
2022/01/19 10:57:55;;;;;;;19.25;13.65;;;8.70;96.70;;;;;;5083602;28;20172;-75
2022/01/19 11:00:28;;;;;;;16.75;12.60;;;8.90;96.70;;;;;;5078119;28;20498;-75
2022/01/19 11:02:58;;;;;;;16.38;12.52;;;9.00;96.70;;;;;;5082095;28;20784;-75
2022/01/19 11:05:44;;;;;;;15.07;12.13;;;9.10;96.70;;;;;;5078669;28;20050;-75
2022/01/19 11:08:16;;;;;;;16.20;12.70;;;9.20;96.70;;;;;;5078147;28;20054;-75
2022/01/19 11:10:48;;;;;;;18.55;12.82;;;9.30;96.70;;;;;;5052352;28;20041;-75
2022/01/19 11:13:26;;;;;;;15.40;11.93;;;9.40;96.70;;;;;;5070615;28;20036;-75
2022/01/19 11:15:57;;;;;;;19.58;12.65;;;9.50;96.70;;;;;;5073983;28;20322;-75
2022/01/19 11:18:29;;;;;;;18.48;12.85;;;9.60;96.70;;;;;;5096880;27;20081;-75
2022/01/19 11:21:01;;;;;;;16.00;12.45;;;9.70;96.70;;;;;;5079231;28;20360;-75
2022/01/19 11:23:42;;;;;;;15.27;11.43;;;9.80;96.70;;;;;;5075411;28;20561;-75
2022/01/19 11:26:15;;;;;;;14.98;11.75;;;9.90;96.70;;;;;;5067016;28;20044;-75
2022/01/19 11:28:46;;;;;;;16.35;11.50;;;10.00;96.70;;;;;;5065938;28;20040;-75
2022/01/19 11:31:19;;;;;;;15.40;11.68;;;10.10;96.70;;;;;;5098508;27;20453;-75
2022/01/19 11:33:51;;;;;;;13.50;10.55;;;10.20;96.70;;;;;;5063104;28;20063;-76
2022/01/19 11:36:22;;;;;;;14.32;10.68;;;10.30;96.70;;;;;;5075456;28;20502;-77
2022/01/19 11:39:03;;;;;;;15.45;10.40;;;10.40;96.70;;;;;;5071810;28;20119;-76
2022/01/19 11:41:46;;;;;;;14.80;10.27;;;10.50;96.70;;;;;;5075122;28;20040;-76
2022/01/19 11:44:21;;;;;;;14.48;10.30;;;10.70;96.70;;;;;;5071841;28;20060;-76
2022/01/19 11:46:53;;;;;;;14.85;10.57;;;10.80;96.70;;;;;;5073408;28;20048;-76
2022/01/19 11:49:46;;;;;;;13.85;10.18;;;10.80;96.70;;;;;;5071539;28;20512;-76
2022/01/19 11:52:15;;;;;;;12.00;8.95;;;11.10;96.70;;;;;;5081284;28;20092;-76
2022/01/19 11:54:45;;;;;;;12.70;8.82;;;11.20;96.70;;;;;;5065185;28;20044;-76
2022/01/19 11:57:16;;;;;;;12.75;8.35;;;11.30;96.70;;;;;;5078022;28;20406;-75
2022/01/19 12:00:09;;;;;;;11.38;6.80;;;11.40;96.70;;;;;;5073886;28;20435;-76
2022/01/19 12:02:45;;;;;;;10.73;7.45;;;11.70;96.70;;;;;;5063458;28;20059;-76
2022/01/19 12:05:38;;;;;;;7.22;5.68;;;11.80;96.70;;;;;;5076088;28;20405;-76
2022/01/19 12:08:30;;;;;;;8.32;5.55;;;12.00;96.70;;;;;;5073188;28;20040;-76
2022/01/19 12:11:14;;;;;;;7.00;4.80;;;12.10;96.70;;;;;;5075194;28;20937;-76
2022/01/19 12:19:14;;;;;;;5.60;4.30;;;12.40;96.70;;;;;;5068138;28;20126;-76
2022/01/19 12:21:48;;;;;;;5.60;3.95;;;12.60;96.70;;;;;;5081117;28;20041;-76
2022/01/19 12:24:39;;;;;;;7.88;4.47;;;12.70;96.70;;;;;;5062752;28;20170;-76
2022/01/19 12:27:21;;;;;;;4.38;3.63;;;12.90;96.70;;;;;;5070546;28;20036;-77
2022/01/19 12:29:51;;;;;;;5.43;3.72;;;13.00;96.70;;;;;;5073846;28;20559;-76
2022/01/19 12:32:38;;;;;;;5.40;3.92;;;13.10;96.70;;;;;;5073513;28;20135;-76
2022/01/19 12:35:14;;;;;;;5.07;3.85;;;13.20;96.70;;;;;;5073363;28;20133;-76
2022/01/19 12:37:45;;;;;;;4.85;3.65;;;13.20;96.70;;;;;;5080396;28;20526;-77
2022/01/19 12:40:32;;;;;;;5.35;3.72;;;13.30;96.70;;;;;;5082035;28;20052;-76
2022/01/19 12:43:02;;;;;;;3.93;3.00;;;13.40;96.70;;;;;;5074030;28;20047;-76
2022/01/19 12:45:32;;;;;;;3.70;2.75;;;13.50;96.70;;;;;;5070224;28;20406;-76
2022/01/19 12:48:02;;;;;;;3.78;2.65;;;13.50;96.70;;;;;;5061897;28;20277;-76
2022/01/19 12:50:42;;;;;;;5.93;3.45;;;13.60;96.70;;;;;;5073372;28;20050;-76
2022/01/19 12:53:18;;;;;;;5.13;3.20;;;13.60;96.70;;;;;;5071632;28;20411;-75
2022/01/19 12:55:49;;;;;;;4.25;3.00;;;13.60;96.70;;;;;;5073255;28;20432;-75
2022/01/19 12:58:21;;;;;;;4.68;3.40;;;13.50;96.70;;;;;;5073915;28;20055;-75
2022/01/19 13:00:52;;;;;;;4.75;3.55;;;13.50;96.70;;;;;;5070667;28;20043;-75
2022/01/19 13:03:29;;;;;;;4.28;3.58;;;13.60;96.70;;;;;;5074792;28;20543;-75
2022/01/19 13:06:02;;;;;;;5.82;3.72;;;13.70;96.70;;;;;;5079942;28;20063;-75
2022/01/19 13:08:44;;;;;;;6.53;3.85;;;13.80;96.70;;;;;;5074463;28;20422;-75
2022/01/19 13:11:28;;;;;;;5.65;4.32;;;13.90;96.70;;;;;;5076662;28;20052;-75
2022/01/19 13:14:01;;;;;;;7.18;3.60;;;13.90;96.70;;;;;;5072088;28;20055;-75
2022/01/19 13:16:41;;;;;;;6.13;3.80;;;14.00;96.70;;;;;;5071186;28;20047;-76
2022/01/19 13:19:13;;;;;;;4.78;3.88;;;14.00;96.70;;;;;;5070998;28;20044;-75
2022/01/19 13:21:44;;;;;;;5.72;4.00;;;13.90;96.70;;;;;;5074658;28;20052;-75
2022/01/19 13:24:22;;;;;;;5.20;3.90;;;13.90;96.70;;;;;;5066200;28;20041;-75
2022/01/19 13:26:53;;;;;;;6.07;4.28;;;13.90;96.70;;;;;;5067026;28;20066;-75
2022/01/19 13:29:25;;;;;;;6.32;4.43;;;13.90;96.70;;;;;;5062130;28;20051;-76
2022/01/19 13:32:07;;;;;;;15.75;5.13;;;13.90;96.70;;;;;;5071884;28;20136;-75
2022/01/19 13:34:49;;;;;;;8.77;5.00;;;13.90;96.70;;;;;;5058411;28;20040;-75
2022/01/19 13:37:20;;;;;;;7.55;4.60;;;14.00;96.70;;;;;;5079748;28;20036;-75
2022/01/19 13:39:57;;;;;;;6.15;5.05;;;13.90;96.70;;;;;;5071970;28;20465;-74
2022/01/19 13:42:34;;;;;;;6.65;5.07;;;13.90;96.70;;;;;;5081185;28;20098;-75
2022/01/19 13:45:09;;;;;;;7.18;4.47;;;13.90;96.70;;;;;;5075467;28;20047;-75
2022/01/19 13:48:03;;;;;;;9.75;5.03;;;13.90;96.70;;;;;;5072015;28;20363;-75
2022/01/19 13:50:33;;;;;;;8.05;5.40;;;14.00;96.70;;;;;;5064475;28;20138;-75
2022/01/19 13:53:03;;;;;;;6.57;5.30;;;14.00;96.70;;;;;;5076796;28;20059;-75
2022/01/19 13:55:31;;;;;;;7.07;4.93;;;13.90;96.70;;;;;;5080708;28;20429;-75
2022/01/19 13:58:11;;;;;;;7.47;5.15;;;13.60;96.70;;;;;;5090479;28;20050;-75
2022/01/19 14:00:50;;;;;;;10.65;5.53;;;13.50;96.70;;;;;;5083318;28;20130;-75
2022/01/19 14:03:19;;;;;;;10.20;4.85;;;13.40;96.70;;;;;;5081205;28;20048;-75
2022/01/19 14:05:51;;;;;;;7.03;4.80;;;13.40;96.70;;;;;;5078995;28;20033;-75
2022/01/19 14:08:30;;;;;;;8.80;4.85;;;13.30;96.70;;;;;;5072970;28;20040;-75
2022/01/19 14:10:59;;;;;;;7.65;4.38;;;13.20;96.70;;;;;;5079423;28;20877;-75
2022/01/19 14:13:30;;;;;;;10.63;5.20;;;13.10;96.70;;;;;;5075770;28;20040;-75
2022/01/19 14:16:13;;;;;;;8.38;5.38;;;13.10;96.70;;;;;;5076782;28;20256;-74
2022/01/19 14:18:41;;;;;;;9.82;5.65;;;13.10;96.70;;;;;;5076248;28;20080;-75
2022/01/19 14:21:10;;;;;;;10.77;5.13;;;13.10;96.70;;;;;;5068929;28;20047;-75
2022/01/19 14:23:58;;;;;;;8.05;5.03;;;13.10;96.70;;;;;;5073292;28;20109;-75
2022/01/19 14:26:26;;;;;;;9.07;4.90;;;13.00;96.70;;;;;;5087164;27;20298;-75
2022/01/19 14:29:12;;;;;;;7.22;5.20;;;13.00;96.70;;;;;;5078848;28;20059;-75
2022/01/19 14:31:49;;;;;;;6.68;5.40;;;13.00;96.70;;;;;;5073750;28;20417;-75
2022/01/19 14:34:36;;;;;;;8.50;4.50;;;13.00;96.70;;;;;;5074581;28;20051;-75
2022/01/19 14:37:12;;;;;;;8.70;5.60;;;13.00;96.70;;;;;;5070238;28;20140;-75
2022/01/19 14:39:51;;;;;;;10.43;5.80;;;13.00;96.70;;;;;;5077960;28;20044;-75
2022/01/19 14:42:21;;;;;;;7.65;5.38;;;12.90;96.70;;;;;;5072857;28;20112;-75